sensor_id;sensor_type;location;lat;lon;timestamp;P1;durP1;ratioP1;P2;durP2;ratioP2
7116;SDS011;3600;48.568;7.870;2022-12-05T00:00:09;23.73;;;15.50;;
7116;SDS011;3600;48.568;7.870;2022-12-05T00:02:36;25.07;;;16.07;;
7116;SDS011;3600;48.568;7.870;2022-12-05T00:05:04;21.30;;;14.87;;
7116;SDS011;3600;48.568;7.870;2022-12-05T00:07:31;24.87;;;15.27;;
7116;SDS011;3600;48.568;7.870;2022-12-05T00:09:58;19.70;;;14.03;;
7116;SDS011;3600;48.568;7.870;2022-12-05T00:12:25;20.73;;;14.40;;
7116;SDS011;3600;48.568;7.870;2022-12-05T00:14:53;22.70;;;15.53;;
7116;SDS011;3600;48.568;7.870;2022-12-05T00:17:20;23.47;;;14.17;;
7116;SDS011;3600;48.568;7.870;2022-12-05T00:19:47;21.73;;;14.73;;
7116;SDS011;3600;48.568;7.870;2022-12-05T00:22:21;21.30;;;13.50;;
7116;SDS011;3600;48.568;7.870;2022-12-05T00:24:48;22.50;;;14.47;;
7116;SDS011;3600;48.568;7.870;2022-12-05T00:27:16;22.07;;;14.47;;
7116;SDS011;3600;48.568;7.870;2022-12-05T00:29:43;23.80;;;14.60;;
7116;SDS011;3600;48.568;7.870;2022-12-05T00:32:10;20.87;;;13.30;;
7116;SDS011;3600;48.568;7.870;2022-12-05T00:34:37;19.57;;;14.17;;
7116;SDS011;3600;48.568;7.870;2022-12-05T00:37:04;21.07;;;13.77;;
7116;SDS011;3600;48.568;7.870;2022-12-05T00:39:31;23.80;;;15.60;;
7116;SDS011;3600;48.568;7.870;2022-12-05T00:41:58;20.80;;;14.97;;
7116;SDS011;3600;48.568;7.870;2022-12-05T00:44:25;16.13;;;13.70;;
7116;SDS011;3600;48.568;7.870;2022-12-05T00:46:53;21.53;;;13.93;;
7116;SDS011;3600;48.568;7.870;2022-12-05T00:49:20;21.80;;;14.90;;
7116;SDS011;3600;48.568;7.870;2022-12-05T00:51:47;19.53;;;13.70;;
7116;SDS011;3600;48.568;7.870;2022-12-05T00:54:14;24.53;;;15.03;;
7116;SDS011;3600;48.568;7.870;2022-12-05T00:56:42;19.93;;;13.63;;
7116;SDS011;3600;48.568;7.870;2022-12-05T00:59:13;24.13;;;15.70;;
7116;SDS011;3600;48.568;7.870;2022-12-05T01:01:42;18.40;;;13.43;;
7116;SDS011;3600;48.568;7.870;2022-12-05T01:04:14;19.63;;;14.17;;
7116;SDS011;3600;48.568;7.870;2022-12-05T01:06:42;23.10;;;14.20;;
7116;SDS011;3600;48.568;7.870;2022-12-05T01:09:13;22.67;;;14.90;;
7116;SDS011;3600;48.568;7.870;2022-12-05T01:11:41;23.73;;;14.73;;
7116;SDS011;3600;48.568;7.870;2022-12-05T01:14:09;20.40;;;14.00;;
7116;SDS011;3600;48.568;7.870;2022-12-05T01:16:37;23.07;;;15.33;;
7116;SDS011;3600;48.568;7.870;2022-12-05T01:19:06;22.27;;;14.57;;
7116;SDS011;3600;48.568;7.870;2022-12-05T01:21:33;20.57;;;14.10;;
7116;SDS011;3600;48.568;7.870;2022-12-05T01:24:00;20.10;;;14.57;;
7116;SDS011;3600;48.568;7.870;2022-12-05T01:26:27;20.47;;;13.67;;
7116;SDS011;3600;48.568;7.870;2022-12-05T01:28:55;20.60;;;14.97;;
7116;SDS011;3600;48.568;7.870;2022-12-05T01:31:23;20.93;;;13.43;;
7116;SDS011;3600;48.568;7.870;2022-12-05T01:33:51;20.03;;;14.67;;
7116;SDS011;3600;48.568;7.870;2022-12-05T01:36:19;18.00;;;12.17;;
7116;SDS011;3600;48.568;7.870;2022-12-05T01:38:46;19.73;;;13.37;;
7116;SDS011;3600;48.568;7.870;2022-12-05T01:41:15;20.10;;;13.27;;
7116;SDS011;3600;48.568;7.870;2022-12-05T01:43:51;19.67;;;13.43;;
7116;SDS011;3600;48.568;7.870;2022-12-05T01:46:19;19.83;;;13.73;;
7116;SDS011;3600;48.568;7.870;2022-12-05T01:48:46;24.87;;;14.17;;
7116;SDS011;3600;48.568;7.870;2022-12-05T01:51:14;20.50;;;14.07;;
7116;SDS011;3600;48.568;7.870;2022-12-05T01:53:41;19.77;;;13.57;;
7116;SDS011;3600;48.568;7.870;2022-12-05T01:56:08;22.17;;;13.77;;
7116;SDS011;3600;48.568;7.870;2022-12-05T01:58:36;19.70;;;13.27;;
7116;SDS011;3600;48.568;7.870;2022-12-05T02:01:04;21.83;;;13.83;;
7116;SDS011;3600;48.568;7.870;2022-12-05T02:03:31;18.67;;;13.00;;
7116;SDS011;3600;48.568;7.870;2022-12-05T02:05:59;17.00;;;12.50;;
7116;SDS011;3600;48.568;7.870;2022-12-05T02:08:27;21.00;;;12.87;;
7116;SDS011;3600;48.568;7.870;2022-12-05T02:10:55;19.20;;;12.83;;
7116;SDS011;3600;48.568;7.870;2022-12-05T02:19:09;18.70;;;13.37;;
7116;SDS011;3600;48.568;7.870;2022-12-05T02:24:26;19.33;;;13.03;;
7116;SDS011;3600;48.568;7.870;2022-12-05T02:26:59;18.67;;;13.20;;
7116;SDS011;3600;48.568;7.870;2022-12-05T02:38:20;20.80;;;13.37;;
7116;SDS011;3600;48.568;7.870;2022-12-05T02:42:43;17.97;;;12.67;;
7116;SDS011;3600;48.568;7.870;2022-12-05T02:45:12;18.90;;;12.97;;
7116;SDS011;3600;48.568;7.870;2022-12-05T02:47:43;18.87;;;13.23;;
7116;SDS011;3600;48.568;7.870;2022-12-05T02:50:12;20.50;;;14.03;;
7116;SDS011;3600;48.568;7.870;2022-12-05T02:52:40;18.20;;;13.47;;
7116;SDS011;3600;48.568;7.870;2022-12-05T02:55:08;18.10;;;14.27;;
7116;SDS011;3600;48.568;7.870;2022-12-05T02:57:35;19.60;;;13.90;;
7116;SDS011;3600;48.568;7.870;2022-12-05T03:00:03;19.80;;;13.17;;
7116;SDS011;3600;48.568;7.870;2022-12-05T03:02:33;18.07;;;13.10;;
7116;SDS011;3600;48.568;7.870;2022-12-05T03:05:03;19.80;;;12.80;;
7116;SDS011;3600;48.568;7.870;2022-12-05T03:07:35;17.67;;;12.40;;
7116;SDS011;3600;48.568;7.870;2022-12-05T03:10:04;21.93;;;13.13;;
7116;SDS011;3600;48.568;7.870;2022-12-05T03:12:36;18.97;;;12.23;;
7116;SDS011;3600;48.568;7.870;2022-12-05T03:15:05;21.17;;;13.23;;
7116;SDS011;3600;48.568;7.870;2022-12-05T03:17:35;19.23;;;12.70;;
7116;SDS011;3600;48.568;7.870;2022-12-05T03:20:05;21.47;;;13.97;;
7116;SDS011;3600;48.568;7.870;2022-12-05T03:22:45;24.57;;;15.83;;
7116;SDS011;3600;48.568;7.870;2022-12-05T03:25:13;27.40;;;17.33;;
7116;SDS011;3600;48.568;7.870;2022-12-05T03:30:17;43.63;;;26.10;;
7116;SDS011;3600;48.568;7.870;2022-12-05T03:32:51;42.10;;;24.57;;
7116;SDS011;3600;48.568;7.870;2022-12-05T03:38:11;19.53;;;12.90;;
7116;SDS011;3600;48.568;7.870;2022-12-05T03:46:38;21.07;;;13.43;;
7116;SDS011;3600;48.568;7.870;2022-12-05T03:51:10;21.57;;;13.07;;
7116;SDS011;3600;48.568;7.870;2022-12-05T03:53:40;21.43;;;12.53;;
7116;SDS011;3600;48.568;7.870;2022-12-05T03:56:11;21.53;;;12.73;;
7116;SDS011;3600;48.568;7.870;2022-12-05T03:58:48;20.67;;;12.67;;
7116;SDS011;3600;48.568;7.870;2022-12-05T04:01:17;18.83;;;11.97;;
7116;SDS011;3600;48.568;7.870;2022-12-05T04:03:46;21.47;;;13.50;;
7116;SDS011;3600;48.568;7.870;2022-12-05T04:06:24;18.57;;;12.10;;
7116;SDS011;3600;48.568;7.870;2022-12-05T04:08:53;22.87;;;13.43;;
7116;SDS011;3600;48.568;7.870;2022-12-05T04:11:22;23.27;;;13.67;;
7116;SDS011;3600;48.568;7.870;2022-12-05T04:13:54;21.17;;;13.63;;
7116;SDS011;3600;48.568;7.870;2022-12-05T04:16:23;21.23;;;14.17;;
7116;SDS011;3600;48.568;7.870;2022-12-05T04:19:13;20.30;;;13.20;;
7116;SDS011;3600;48.568;7.870;2022-12-05T04:21:42;20.43;;;14.07;;
7116;SDS011;3600;48.568;7.870;2022-12-05T04:24:20;19.93;;;12.23;;
7116;SDS011;3600;48.568;7.870;2022-12-05T04:29:55;17.33;;;12.53;;
7116;SDS011;3600;48.568;7.870;2022-12-05T04:32:26;18.03;;;11.43;;
7116;SDS011;3600;48.568;7.870;2022-12-05T04:34:57;18.27;;;12.47;;
7116;SDS011;3600;48.568;7.870;2022-12-05T04:37:27;18.00;;;11.97;;
7116;SDS011;3600;48.568;7.870;2022-12-05T04:39:59;16.73;;;11.57;;
7116;SDS011;3600;48.568;7.870;2022-12-05T04:42:27;21.07;;;13.17;;
7116;SDS011;3600;48.568;7.870;2022-12-05T04:44:57;19.83;;;12.03;;
7116;SDS011;3600;48.568;7.870;2022-12-05T04:47:27;19.50;;;12.77;;
7116;SDS011;3600;48.568;7.870;2022-12-05T04:49:55;20.17;;;13.77;;
7116;SDS011;3600;48.568;7.870;2022-12-05T04:52:23;22.80;;;12.40;;
7116;SDS011;3600;48.568;7.870;2022-12-05T04:55:07;21.27;;;13.37;;
7116;SDS011;3600;48.568;7.870;2022-12-05T05:00:20;18.87;;;12.13;;
7116;SDS011;3600;48.568;7.870;2022-12-05T05:02:51;19.10;;;13.03;;
7116;SDS011;3600;48.568;7.870;2022-12-05T05:05:20;22.70;;;13.70;;
7116;SDS011;3600;48.568;7.870;2022-12-05T05:07:51;17.80;;;11.57;;
7116;SDS011;3600;48.568;7.870;2022-12-05T05:10:20;20.93;;;13.17;;
7116;SDS011;3600;48.568;7.870;2022-12-05T05:12:48;17.53;;;12.60;;
7116;SDS011;3600;48.568;7.870;2022-12-05T05:15:15;16.27;;;12.10;;
7116;SDS011;3600;48.568;7.870;2022-12-05T05:17:42;19.43;;;13.03;;
7116;SDS011;3600;48.568;7.870;2022-12-05T05:20:09;21.17;;;13.00;;
7116;SDS011;3600;48.568;7.870;2022-12-05T05:22:49;20.73;;;12.43;;
7116;SDS011;3600;48.568;7.870;2022-12-05T05:25:17;22.33;;;13.07;;
7116;SDS011;3600;48.568;7.870;2022-12-05T05:27:48;19.37;;;12.60;;
7116;SDS011;3600;48.568;7.870;2022-12-05T05:30:16;19.83;;;13.07;;
7116;SDS011;3600;48.568;7.870;2022-12-05T05:32:43;16.80;;;12.47;;
7116;SDS011;3600;48.568;7.870;2022-12-05T05:35:11;20.10;;;13.87;;
7116;SDS011;3600;48.568;7.870;2022-12-05T05:37:38;20.23;;;15.20;;
7116;SDS011;3600;48.568;7.870;2022-12-05T05:40:06;22.47;;;13.57;;
7116;SDS011;3600;48.568;7.870;2022-12-05T05:42:40;19.80;;;12.70;;
7116;SDS011;3600;48.568;7.870;2022-12-05T05:45:08;20.30;;;14.13;;
7116;SDS011;3600;48.568;7.870;2022-12-05T05:47:35;23.33;;;15.03;;
7116;SDS011;3600;48.568;7.870;2022-12-05T05:50:02;20.70;;;13.73;;
7116;SDS011;3600;48.568;7.870;2022-12-05T05:52:31;17.97;;;13.00;;
7116;SDS011;3600;48.568;7.870;2022-12-05T05:54:59;19.13;;;12.93;;
7116;SDS011;3600;48.568;7.870;2022-12-05T05:57:34;18.87;;;12.87;;
7116;SDS011;3600;48.568;7.870;2022-12-05T06:00:03;19.90;;;13.50;;
7116;SDS011;3600;48.568;7.870;2022-12-05T06:02:31;18.27;;;13.00;;
7116;SDS011;3600;48.568;7.870;2022-12-05T06:04:58;18.93;;;12.73;;
7116;SDS011;3600;48.568;7.870;2022-12-05T06:07:26;20.43;;;13.13;;
7116;SDS011;3600;48.568;7.870;2022-12-05T06:09:53;21.57;;;14.13;;
7116;SDS011;3600;48.568;7.870;2022-12-05T06:12:21;20.63;;;13.03;;
7116;SDS011;3600;48.568;7.870;2022-12-05T06:14:49;19.83;;;12.63;;
7116;SDS011;3600;48.568;7.870;2022-12-05T06:17:16;21.17;;;13.93;;
7116;SDS011;3600;48.568;7.870;2022-12-05T06:19:43;21.70;;;13.63;;
7116;SDS011;3600;48.568;7.870;2022-12-05T06:22:10;18.00;;;13.00;;
7116;SDS011;3600;48.568;7.870;2022-12-05T06:24:37;21.43;;;14.03;;
7116;SDS011;3600;48.568;7.870;2022-12-05T06:27:05;21.80;;;13.43;;
7116;SDS011;3600;48.568;7.870;2022-12-05T06:29:32;18.73;;;12.50;;
7116;SDS011;3600;48.568;7.870;2022-12-05T06:31:59;22.03;;;13.33;;
7116;SDS011;3600;48.568;7.870;2022-12-05T06:34:27;21.20;;;13.07;;
7116;SDS011;3600;48.568;7.870;2022-12-05T06:36:54;22.77;;;13.50;;
7116;SDS011;3600;48.568;7.870;2022-12-05T06:39:21;21.90;;;13.97;;
7116;SDS011;3600;48.568;7.870;2022-12-05T06:41:48;21.27;;;14.57;;
7116;SDS011;3600;48.568;7.870;2022-12-05T06:44:15;21.63;;;15.13;;
7116;SDS011;3600;48.568;7.870;2022-12-05T06:46:42;31.50;;;23.50;;
7116;SDS011;3600;48.568;7.870;2022-12-05T06:49:10;29.70;;;21.97;;
7116;SDS011;3600;48.568;7.870;2022-12-05T06:51:37;33.63;;;23.10;;
7116;SDS011;3600;48.568;7.870;2022-12-05T06:54:04;42.50;;;30.50;;
7116;SDS011;3600;48.568;7.870;2022-12-05T06:56:31;29.53;;;21.80;;
7116;SDS011;3600;48.568;7.870;2022-12-05T06:58:58;27.70;;;18.10;;
7116;SDS011;3600;48.568;7.870;2022-12-05T07:01:25;23.93;;;16.70;;
7116;SDS011;3600;48.568;7.870;2022-12-05T07:06:33;21.67;;;14.57;;
7116;SDS011;3600;48.568;7.870;2022-12-05T07:09:01;23.20;;;15.70;;
7116;SDS011;3600;48.568;7.870;2022-12-05T07:11:28;20.50;;;14.40;;
7116;SDS011;3600;48.568;7.870;2022-12-05T07:13:55;21.37;;;14.87;;
7116;SDS011;3600;48.568;7.870;2022-12-05T07:16:23;24.17;;;15.43;;
7116;SDS011;3600;48.568;7.870;2022-12-05T07:18:50;21.63;;;14.50;;
7116;SDS011;3600;48.568;7.870;2022-12-05T07:21:17;24.83;;;14.87;;
7116;SDS011;3600;48.568;7.870;2022-12-05T07:23:47;22.37;;;14.87;;
7116;SDS011;3600;48.568;7.870;2022-12-05T07:26:18;21.27;;;14.67;;
7116;SDS011;3600;48.568;7.870;2022-12-05T07:28:46;22.07;;;14.80;;
7116;SDS011;3600;48.568;7.870;2022-12-05T07:31:18;22.47;;;14.47;;
7116;SDS011;3600;48.568;7.870;2022-12-05T07:33:45;20.07;;;14.07;;
7116;SDS011;3600;48.568;7.870;2022-12-05T07:36:13;23.60;;;14.33;;
7116;SDS011;3600;48.568;7.870;2022-12-05T07:38:41;21.53;;;14.33;;
7116;SDS011;3600;48.568;7.870;2022-12-05T07:41:28;21.63;;;14.10;;
7116;SDS011;3600;48.568;7.870;2022-12-05T07:43:55;20.37;;;13.30;;
7116;SDS011;3600;48.568;7.870;2022-12-05T07:46:23;21.30;;;13.70;;
7116;SDS011;3600;48.568;7.870;2022-12-05T07:48:51;24.30;;;16.00;;
7116;SDS011;3600;48.568;7.870;2022-12-05T07:51:18;23.80;;;15.40;;
7116;SDS011;3600;48.568;7.870;2022-12-05T07:53:45;24.23;;;16.07;;
7116;SDS011;3600;48.568;7.870;2022-12-05T07:56:14;25.03;;;15.07;;
7116;SDS011;3600;48.568;7.870;2022-12-05T07:58:43;23.60;;;15.27;;
7116;SDS011;3600;48.568;7.870;2022-12-05T08:01:11;22.70;;;15.10;;
7116;SDS011;3600;48.568;7.870;2022-12-05T08:03:39;24.50;;;14.67;;
7116;SDS011;3600;48.568;7.870;2022-12-05T08:06:07;21.17;;;14.30;;
7116;SDS011;3600;48.568;7.870;2022-12-05T08:08:35;23.07;;;14.30;;
7116;SDS011;3600;48.568;7.870;2022-12-05T08:11:22;22.03;;;14.27;;
7116;SDS011;3600;48.568;7.870;2022-12-05T08:13:49;22.70;;;14.37;;
7116;SDS011;3600;48.568;7.870;2022-12-05T08:16:18;21.67;;;14.73;;
7116;SDS011;3600;48.568;7.870;2022-12-05T08:18:45;21.70;;;15.23;;
7116;SDS011;3600;48.568;7.870;2022-12-05T08:21:13;22.73;;;15.40;;
7116;SDS011;3600;48.568;7.870;2022-12-05T08:23:41;26.47;;;16.73;;
7116;SDS011;3600;48.568;7.870;2022-12-05T08:26:09;22.33;;;16.00;;
7116;SDS011;3600;48.568;7.870;2022-12-05T08:28:37;22.20;;;14.37;;
7116;SDS011;3600;48.568;7.870;2022-12-05T08:33:34;23.30;;;15.37;;
7116;SDS011;3600;48.568;7.870;2022-12-05T08:36:05;21.77;;;14.87;;
7116;SDS011;3600;48.568;7.870;2022-12-05T08:38:33;24.43;;;15.27;;
7116;SDS011;3600;48.568;7.870;2022-12-05T08:41:01;22.07;;;15.27;;
7116;SDS011;3600;48.568;7.870;2022-12-05T08:43:29;22.37;;;14.73;;
7116;SDS011;3600;48.568;7.870;2022-12-05T08:45:56;23.40;;;15.60;;
7116;SDS011;3600;48.568;7.870;2022-12-05T08:48:24;20.83;;;14.67;;
7116;SDS011;3600;48.568;7.870;2022-12-05T08:50:55;22.87;;;14.83;;
7116;SDS011;3600;48.568;7.870;2022-12-05T08:53:22;23.83;;;14.50;;
7116;SDS011;3600;48.568;7.870;2022-12-05T08:55:49;20.13;;;14.07;;
7116;SDS011;3600;48.568;7.870;2022-12-05T08:58:16;22.73;;;14.87;;
7116;SDS011;3600;48.568;7.870;2022-12-05T09:00:43;24.00;;;14.87;;
7116;SDS011;3600;48.568;7.870;2022-12-05T09:03:11;24.57;;;16.63;;
7116;SDS011;3600;48.568;7.870;2022-12-05T09:05:38;24.17;;;16.00;;
7116;SDS011;3600;48.568;7.870;2022-12-05T09:08:05;22.97;;;14.27;;
7116;SDS011;3600;48.568;7.870;2022-12-05T09:10:32;21.93;;;14.97;;
7116;SDS011;3600;48.568;7.870;2022-12-05T09:12:59;22.60;;;15.20;;
7116;SDS011;3600;48.568;7.870;2022-12-05T09:15:26;23.33;;;15.03;;
7116;SDS011;3600;48.568;7.870;2022-12-05T09:17:53;22.70;;;15.17;;
7116;SDS011;3600;48.568;7.870;2022-12-05T09:20:21;23.33;;;16.07;;
7116;SDS011;3600;48.568;7.870;2022-12-05T09:22:48;22.17;;;15.40;;
7116;SDS011;3600;48.568;7.870;2022-12-05T09:25:15;20.67;;;14.63;;
7116;SDS011;3600;48.568;7.870;2022-12-05T09:27:42;21.50;;;14.90;;
7116;SDS011;3600;48.568;7.870;2022-12-05T09:30:09;20.20;;;14.73;;
7116;SDS011;3600;48.568;7.870;2022-12-05T09:32:36;21.57;;;14.33;;
7116;SDS011;3600;48.568;7.870;2022-12-05T09:35:04;22.07;;;15.00;;
7116;SDS011;3600;48.568;7.870;2022-12-05T09:37:31;23.43;;;15.70;;
7116;SDS011;3600;48.568;7.870;2022-12-05T09:40:06;17.73;;;13.40;;
7116;SDS011;3600;48.568;7.870;2022-12-05T09:42:37;26.07;;;15.77;;
7116;SDS011;3600;48.568;7.870;2022-12-05T09:45:17;21.97;;;15.73;;
7116;SDS011;3600;48.568;7.870;2022-12-05T09:47:47;22.40;;;15.73;;
7116;SDS011;3600;48.568;7.870;2022-12-05T09:53:01;22.03;;;15.27;;
7116;SDS011;3600;48.568;7.870;2022-12-05T09:55:34;20.63;;;14.17;;
7116;SDS011;3600;48.568;7.870;2022-12-05T09:58:03;19.20;;;14.00;;
7116;SDS011;3600;48.568;7.870;2022-12-05T10:00:31;22.93;;;13.80;;
7116;SDS011;3600;48.568;7.870;2022-12-05T10:15:59;18.60;;;13.13;;
7116;SDS011;3600;48.568;7.870;2022-12-05T10:18:31;15.53;;;11.97;;
7116;SDS011;3600;48.568;7.870;2022-12-05T10:21:04;16.07;;;11.73;;
7116;SDS011;3600;48.568;7.870;2022-12-05T10:23:50;15.07;;;11.13;;
7116;SDS011;3600;48.568;7.870;2022-12-05T10:26:25;15.10;;;11.57;;
7116;SDS011;3600;48.568;7.870;2022-12-05T10:29:02;15.50;;;11.17;;
7116;SDS011;3600;48.568;7.870;2022-12-05T10:31:32;14.17;;;10.63;;
7116;SDS011;3600;48.568;7.870;2022-12-05T10:36:50;12.20;;;10.40;;
7116;SDS011;3600;48.568;7.870;2022-12-05T10:39:19;14.43;;;11.53;;
7116;SDS011;3600;48.568;7.870;2022-12-05T10:41:46;14.63;;;10.77;;
7116;SDS011;3600;48.568;7.870;2022-12-05T10:44:14;14.20;;;10.53;;
7116;SDS011;3600;48.568;7.870;2022-12-05T10:46:41;12.83;;;10.83;;
7116;SDS011;3600;48.568;7.870;2022-12-05T10:49:11;11.73;;;10.00;;
7116;SDS011;3600;48.568;7.870;2022-12-05T10:51:39;12.90;;;10.37;;
7116;SDS011;3600;48.568;7.870;2022-12-05T10:54:12;12.40;;;9.97;;
7116;SDS011;3600;48.568;7.870;2022-12-05T10:56:42;11.17;;;9.30;;
7116;SDS011;3600;48.568;7.870;2022-12-05T10:59:14;11.87;;;9.00;;
7116;SDS011;3600;48.568;7.870;2022-12-05T11:01:43;12.57;;;9.50;;
7116;SDS011;3600;48.568;7.870;2022-12-05T11:07:03;9.83;;;7.70;;
7116;SDS011;3600;48.568;7.870;2022-12-05T11:09:32;8.73;;;7.17;;
7116;SDS011;3600;48.568;7.870;2022-12-05T11:14:39;8.93;;;6.80;;
7116;SDS011;3600;48.568;7.870;2022-12-05T11:17:09;7.20;;;6.50;;
7116;SDS011;3600;48.568;7.870;2022-12-05T11:19:47;8.33;;;7.20;;
7116;SDS011;3600;48.568;7.870;2022-12-05T11:22:15;9.07;;;7.10;;
7116;SDS011;3600;48.568;7.870;2022-12-05T11:24:43;8.13;;;6.23;;
7116;SDS011;3600;48.568;7.870;2022-12-05T11:29:51;7.23;;;6.10;;
7116;SDS011;3600;48.568;7.870;2022-12-05T11:32:20;8.77;;;6.83;;
7116;SDS011;3600;48.568;7.870;2022-12-05T11:34:52;8.73;;;6.47;;
7116;SDS011;3600;48.568;7.870;2022-12-05T11:37:28;6.40;;;5.63;;
7116;SDS011;3600;48.568;7.870;2022-12-05T11:39:57;8.43;;;6.70;;
7116;SDS011;3600;48.568;7.870;2022-12-05T11:45:40;10.13;;;6.90;;
7116;SDS011;3600;48.568;7.870;2022-12-05T11:48:16;8.07;;;6.70;;
7116;SDS011;3600;48.568;7.870;2022-12-05T11:53:29;9.43;;;6.73;;
7116;SDS011;3600;48.568;7.870;2022-12-05T11:56:07;10.53;;;7.33;;
7116;SDS011;3600;48.568;7.870;2022-12-05T12:02:18;9.30;;;8.07;;
7116;SDS011;3600;48.568;7.870;2022-12-05T12:12:05;8.60;;;6.63;;
7116;SDS011;3600;48.568;7.870;2022-12-05T12:17:15;10.07;;;6.33;;
7116;SDS011;3600;48.568;7.870;2022-12-05T12:22:20;9.00;;;7.60;;
7116;SDS011;3600;48.568;7.870;2022-12-05T12:27:54;9.27;;;6.73;;
7116;SDS011;3600;48.568;7.870;2022-12-05T12:30:50;9.47;;;7.37;;
7116;SDS011;3600;48.568;7.870;2022-12-05T12:33:32;6.90;;;6.20;;
7116;SDS011;3600;48.568;7.870;2022-12-05T12:39:14;7.97;;;7.17;;
7116;SDS011;3600;48.568;7.870;2022-12-05T12:44:44;9.33;;;7.80;;
7116;SDS011;3600;48.568;7.870;2022-12-05T12:47:38;8.80;;;7.90;;
7116;SDS011;3600;48.568;7.870;2022-12-05T12:50:07;8.23;;;7.20;;
7116;SDS011;3600;48.568;7.870;2022-12-05T12:55:17;8.07;;;6.83;;
7116;SDS011;3600;48.568;7.870;2022-12-05T12:57:52;8.33;;;6.70;;
7116;SDS011;3600;48.568;7.870;2022-12-05T13:00:22;8.97;;;7.43;;
7116;SDS011;3600;48.568;7.870;2022-12-05T13:05:55;7.87;;;6.50;;
7116;SDS011;3600;48.568;7.870;2022-12-05T13:10:53;9.23;;;7.77;;
7116;SDS011;3600;48.568;7.870;2022-12-05T13:13:22;9.77;;;7.20;;
7116;SDS011;3600;48.568;7.870;2022-12-05T13:15:54;10.10;;;7.87;;
7116;SDS011;3600;48.568;7.870;2022-12-05T13:18:23;9.23;;;7.37;;
7116;SDS011;3600;48.568;7.870;2022-12-05T13:20:55;7.17;;;6.47;;
7116;SDS011;3600;48.568;7.870;2022-12-05T13:23:23;7.63;;;6.83;;
7116;SDS011;3600;48.568;7.870;2022-12-05T13:25:51;7.37;;;6.37;;
7116;SDS011;3600;48.568;7.870;2022-12-05T13:28:36;8.20;;;7.17;;
7116;SDS011;3600;48.568;7.870;2022-12-05T13:31:08;8.67;;;6.83;;
7116;SDS011;3600;48.568;7.870;2022-12-05T13:36:24;8.30;;;6.90;;
7116;SDS011;3600;48.568;7.870;2022-12-05T13:41:57;8.73;;;6.90;;
7116;SDS011;3600;48.568;7.870;2022-12-05T13:44:48;8.57;;;7.27;;
7116;SDS011;3600;48.568;7.870;2022-12-05T13:50:15;12.47;;;9.03;;
7116;SDS011;3600;48.568;7.870;2022-12-05T13:52:46;9.37;;;8.03;;
7116;SDS011;3600;48.568;7.870;2022-12-05T13:55:25;9.63;;;8.63;;
7116;SDS011;3600;48.568;7.870;2022-12-05T13:58:47;11.37;;;8.93;;
7116;SDS011;3600;48.568;7.870;2022-12-05T14:00:48;10.13;;;8.53;;
7116;SDS011;3600;48.568;7.870;2022-12-05T14:06:00;11.60;;;8.70;;
7116;SDS011;3600;48.568;7.870;2022-12-05T14:15:49;11.07;;;7.97;;
7116;SDS011;3600;48.568;7.870;2022-12-05T14:23:38;11.00;;;8.90;;
7116;SDS011;3600;48.568;7.870;2022-12-05T14:29:02;11.77;;;10.00;;
7116;SDS011;3600;48.568;7.870;2022-12-05T14:34:21;12.03;;;9.97;;
7116;SDS011;3600;48.568;7.870;2022-12-05T14:36:51;11.33;;;9.47;;
7116;SDS011;3600;48.568;7.870;2022-12-05T14:39:19;10.40;;;8.83;;
7116;SDS011;3600;48.568;7.870;2022-12-05T14:41:46;11.50;;;8.83;;
7116;SDS011;3600;48.568;7.870;2022-12-05T14:44:21;11.20;;;9.17;;
7116;SDS011;3600;48.568;7.870;2022-12-05T14:46:50;10.53;;;9.00;;
7116;SDS011;3600;48.568;7.870;2022-12-05T14:52:21;11.97;;;10.27;;
7116;SDS011;3600;48.568;7.870;2022-12-05T14:54:50;16.40;;;11.00;;
7116;SDS011;3600;48.568;7.870;2022-12-05T14:57:18;12.20;;;10.57;;
7116;SDS011;3600;48.568;7.870;2022-12-05T14:59:50;13.80;;;11.60;;
7116;SDS011;3600;48.568;7.870;2022-12-05T15:02:23;16.73;;;12.27;;
7116;SDS011;3600;48.568;7.870;2022-12-05T15:04:56;15.30;;;10.73;;
7116;SDS011;3600;48.568;7.870;2022-12-05T15:07:34;14.37;;;11.13;;
7116;SDS011;3600;48.568;7.870;2022-12-05T15:12:37;10.40;;;9.27;;
7116;SDS011;3600;48.568;7.870;2022-12-05T15:15:13;12.20;;;9.30;;
7116;SDS011;3600;48.568;7.870;2022-12-05T15:17:47;11.63;;;9.80;;
7116;SDS011;3600;48.568;7.870;2022-12-05T15:20:16;16.60;;;10.90;;
7116;SDS011;3600;48.568;7.870;2022-12-05T15:22:45;22.47;;;14.63;;
7116;SDS011;3600;48.568;7.870;2022-12-05T15:25:25;26.37;;;16.63;;
7116;SDS011;3600;48.568;7.870;2022-12-05T15:27:54;27.37;;;19.07;;
7116;SDS011;3600;48.568;7.870;2022-12-05T15:30:21;30.80;;;20.77;;
7116;SDS011;3600;48.568;7.870;2022-12-05T15:32:48;20.20;;;14.47;;
7116;SDS011;3600;48.568;7.870;2022-12-05T15:35:23;17.87;;;13.63;;
7116;SDS011;3600;48.568;7.870;2022-12-05T15:37:58;11.73;;;9.83;;
7116;SDS011;3600;48.568;7.870;2022-12-05T15:40:27;9.93;;;7.57;;
7116;SDS011;3600;48.568;7.870;2022-12-05T15:43:17;10.33;;;8.57;;
7116;SDS011;3600;48.568;7.870;2022-12-05T15:45:49;12.00;;;9.30;;
7116;SDS011;3600;48.568;7.870;2022-12-05T15:48:16;14.93;;;13.33;;
7116;SDS011;3600;48.568;7.870;2022-12-05T15:50:48;23.67;;;20.20;;
7116;SDS011;3600;48.568;7.870;2022-12-05T15:55:47;17.20;;;13.27;;
7116;SDS011;3600;48.568;7.870;2022-12-05T15:58:25;15.53;;;13.47;;
7116;SDS011;3600;48.568;7.870;2022-12-05T16:00:54;19.20;;;15.47;;
7116;SDS011;3600;48.568;7.870;2022-12-05T16:03:26;16.13;;;14.30;;
7116;SDS011;3600;48.568;7.870;2022-12-05T16:05:54;15.23;;;12.30;;
7116;SDS011;3600;48.568;7.870;2022-12-05T16:08:24;10.70;;;9.17;;
7116;SDS011;3600;48.568;7.870;2022-12-05T16:11:06;12.43;;;9.83;;
7116;SDS011;3600;48.568;7.870;2022-12-05T16:13:33;12.30;;;11.00;;
7116;SDS011;3600;48.568;7.870;2022-12-05T16:16:00;14.33;;;11.27;;
7116;SDS011;3600;48.568;7.870;2022-12-05T16:18:29;14.47;;;12.13;;
7116;SDS011;3600;48.568;7.870;2022-12-05T16:20:56;12.90;;;10.80;;
7116;SDS011;3600;48.568;7.870;2022-12-05T16:23:27;12.30;;;10.20;;
7116;SDS011;3600;48.568;7.870;2022-12-05T16:28:41;12.37;;;10.00;;
7116;SDS011;3600;48.568;7.870;2022-12-05T16:31:12;11.90;;;10.70;;
7116;SDS011;3600;48.568;7.870;2022-12-05T16:33:42;14.73;;;11.90;;
7116;SDS011;3600;48.568;7.870;2022-12-05T16:36:10;12.13;;;10.37;;
7116;SDS011;3600;48.568;7.870;2022-12-05T16:38:38;13.13;;;10.63;;
7116;SDS011;3600;48.568;7.870;2022-12-05T16:41:08;13.67;;;11.40;;
7116;SDS011;3600;48.568;7.870;2022-12-05T16:48:40;17.67;;;13.90;;
7116;SDS011;3600;48.568;7.870;2022-12-05T16:53:40;14.57;;;11.73;;
7116;SDS011;3600;48.568;7.870;2022-12-05T16:56:29;15.40;;;12.23;;
7116;SDS011;3600;48.568;7.870;2022-12-05T16:58:55;13.97;;;11.43;;
7116;SDS011;3600;48.568;7.870;2022-12-05T17:01:24;13.23;;;10.47;;
7116;SDS011;3600;48.568;7.870;2022-12-05T17:03:52;11.50;;;10.30;;
7116;SDS011;3600;48.568;7.870;2022-12-05T17:06:20;11.37;;;10.17;;
7116;SDS011;3600;48.568;7.870;2022-12-05T17:08:48;12.97;;;11.60;;
7116;SDS011;3600;48.568;7.870;2022-12-05T17:11:17;18.03;;;13.87;;
7116;SDS011;3600;48.568;7.870;2022-12-05T17:13:45;22.07;;;15.77;;
7116;SDS011;3600;48.568;7.870;2022-12-05T17:16:14;19.17;;;14.67;;
7116;SDS011;3600;48.568;7.870;2022-12-05T17:18:42;22.57;;;14.30;;
7116;SDS011;3600;48.568;7.870;2022-12-05T17:21:14;19.30;;;14.83;;
7116;SDS011;3600;48.568;7.870;2022-12-05T17:23:42;20.50;;;15.17;;
7116;SDS011;3600;48.568;7.870;2022-12-05T17:26:14;20.23;;;15.53;;
7116;SDS011;3600;48.568;7.870;2022-12-05T17:28:41;32.93;;;13.23;;
7116;SDS011;3600;48.568;7.870;2022-12-05T17:31:08;19.87;;;15.63;;
7116;SDS011;3600;48.568;7.870;2022-12-05T17:33:36;18.50;;;15.00;;
7116;SDS011;3600;48.568;7.870;2022-12-05T17:36:03;16.03;;;13.83;;
7116;SDS011;3600;48.568;7.870;2022-12-05T17:38:31;15.37;;;12.97;;
7116;SDS011;3600;48.568;7.870;2022-12-05T17:40:58;16.07;;;13.33;;
7116;SDS011;3600;48.568;7.870;2022-12-05T17:43:32;15.30;;;12.87;;
7116;SDS011;3600;48.568;7.870;2022-12-05T17:45:59;16.57;;;13.43;;